PWSweather.com
Personal Weather Stations
Station Observations
KMOHERMA2
Stony Hill, Hermann, MO 65041

Stony HillHermann, MO 65041

Lat: 38.527, Lon: -91.414

Elevation: 896

Station Type: Davis Vantage Pro 2

High Low Average
Temperature 25.3°F-3.7°C 9.5°F-12.5°C 18.8°F-7.3°C
Dew Point 19.9°F-6.7°C 1.8°F-16.8°C 13.7°F-10.2°C
Winds 22.0 mph 35.4 kmh Calm Calm 8.0 mph W12.9 kmh W
Wind Gusts 27.0 mph43.5 kmh -- 3.0 mph4.8 kmh
Humidity 92% 63% 80%
Pressure 30.39 in1029.1 mb 29.96 in1014.6 mb -
Precipitation 0.00 in0.0 mm - -
Hour Temp Dew Point Humidity Winds Wind Gusts Pressure Precip Precip Rate Daily Precip Total
12:00 AM 15.1°F-9.4°C 12.4°F-10.9°C 89% Calm Calm -- 30.01 in1016.3 mb 0.00 in0.0 mm 0.00 in0.0 mm 0.20 in5.1 mm
12:05 AM 15.1°F-9.4°C 12.4°F-10.9°C 89% Calm Calm -- 30.01 in1016.3 mb 0.00 in0.0 mm 0.00 in0.0 mm 0.20 in5.1 mm
12:10 AM 15.1°F-9.4°C 12.4°F-10.9°C 89% Calm Calm -- 30.00 in1015.9 mb 0.00 in0.0 mm 0.00 in0.0 mm 0.20 in5.1 mm
12:15 AM 15.1°F-9.4°C 12.4°F-10.9°C 89% Calm Calm -- 30.00 in1015.9 mb 0.00 in0.0 mm 0.00 in0.0 mm 0.20 in5.1 mm
12:20 AM 15.0°F-9.4°C 12.4°F-10.9°C 89% Calm Calm -- 30.00 in1015.9 mb 0.00 in0.0 mm 0.00 in0.0 mm 0.20 in5.1 mm
12:25 AM 14.9°F-9.5°C 12.2°F-11.0°C 89% Calm Calm -- 30.01 in1016.3 mb 0.00 in0.0 mm 0.00 in0.0 mm 0.20 in5.1 mm
12:30 AM 14.9°F-9.5°C 12.2°F-11.0°C 89% Calm Calm -- 30.01 in1016.3 mb 0.00 in0.0 mm 0.00 in0.0 mm 0.20 in5.1 mm
12:35 AM 14.8°F-9.6°C 12.0°F-11.1°C 89% Calm Calm -- 30.01 in1016.3 mb 0.00 in0.0 mm 0.00 in0.0 mm 0.20 in5.1 mm
12:40 AM 14.7°F-9.6°C 12.0°F-11.1°C 89% Calm Calm -- 30.01 in1016.3 mb 0.00 in0.0 mm 0.00 in0.0 mm 0.20 in5.1 mm
12:45 AM 14.6°F-9.7°C 12.2°F-11.0°C 90% Calm Calm -- 30.00 in1015.9 mb 0.00 in0.0 mm 0.00 in0.0 mm 0.20 in5.1 mm
12:50 AM 14.6°F-9.7°C 12.2°F-11.0°C 90% Calm Calm -- 30.00 in1015.9 mb 0.00 in0.0 mm 0.00 in0.0 mm 0.20 in5.1 mm
12:55 AM 14.6°F-9.7°C 12.2°F-11.0°C 90% Calm Calm -- 30.00 in1015.9 mb 0.00 in0.0 mm 0.00 in0.0 mm 0.20 in5.1 mm
01:00 AM 14.6°F-9.7°C 12.2°F-11.0°C 90% Calm Calm -- 30.00 in1015.9 mb 0.00 in0.0 mm 0.00 in0.0 mm 0.00 in0.0 mm
01:05 AM 14.6°F-9.7°C 12.2°F-11.0°C 90% Calm Calm -- 30.00 in1015.9 mb 0.00 in0.0 mm 0.00 in0.0 mm 0.00 in0.0 mm
01:10 AM 14.5°F-9.7°C 12.2°F-11.0°C 90% Calm Calm -- 29.99 in1015.6 mb 0.00 in0.0 mm 0.00 in0.0 mm 0.00 in0.0 mm
01:15 AM 14.5°F-9.7°C 12.2°F-11.0°C 90% Calm Calm -- 30.00 in1015.9 mb 0.00 in0.0 mm 0.00 in0.0 mm 0.00 in0.0 mm
01:20 AM 14.5°F-9.7°C 12.2°F-11.0°C 90% Calm Calm -- 30.00 in1015.9 mb 0.00 in0.0 mm 0.00 in0.0 mm 0.00 in0.0 mm
01:25 AM 14.5°F-9.7°C 12.2°F-11.0°C 90% Calm Calm -- 29.99 in1015.6 mb 0.00 in0.0 mm 0.00 in0.0 mm 0.00 in0.0 mm
01:30 AM 14.5°F-9.7°C 12.2°F-11.0°C 90% Calm Calm -- 29.99 in1015.6 mb 0.00 in0.0 mm 0.00 in0.0 mm 0.00 in0.0 mm
01:35 AM 14.5°F-9.7°C 12.2°F-11.0°C 90% Calm Calm -- 30.00 in1015.9 mb 0.00 in0.0 mm 0.00 in0.0 mm 0.00 in0.0 mm
01:40 AM 14.5°F-9.7°C 12.2°F-11.0°C 90% Calm Calm -- 29.99 in1015.6 mb 0.00 in0.0 mm 0.00 in0.0 mm 0.00 in0.0 mm
01:45 AM 14.4°F-9.8°C 12.0°F-11.1°C 90% Calm Calm -- 30.00 in1015.9 mb 0.00 in0.0 mm 0.00 in0.0 mm 0.00 in0.0 mm
01:50 AM 14.3°F-9.8°C 12.0°F-11.1°C 90% Calm Calm -- 29.99 in1015.6 mb 0.00 in0.0 mm 0.00 in0.0 mm 0.00 in0.0 mm
01:55 AM 14.3°F-9.8°C 12.0°F-11.1°C 90% Calm Calm -- 29.99 in1015.6 mb 0.00 in0.0 mm 0.00 in0.0 mm 0.00 in0.0 mm
02:00 AM 14.2°F-9.9°C 11.8°F-11.2°C 90% Calm Calm -- 29.99 in1015.6 mb 0.00 in0.0 mm 0.00 in0.0 mm 0.00 in0.0 mm
02:05 AM 14.2°F-9.9°C 11.8°F-11.2°C 90% Calm Calm -- 29.99 in1015.6 mb 0.00 in0.0 mm 0.00 in0.0 mm 0.00 in0.0 mm
02:10 AM 14.2°F-9.9°C 11.8°F-11.2°C 90% Calm Calm -- 29.99 in1015.6 mb 0.00 in0.0 mm 0.00 in0.0 mm 0.00 in0.0 mm
02:15 AM 14.2°F-9.9°C 11.8°F-11.2°C 90% Calm Calm -- 29.98 in1015.2 mb 0.00 in0.0 mm 0.00 in0.0 mm 0.00 in0.0 mm
02:20 AM 14.3°F-9.8°C 12.0°F-11.1°C 90% Calm Calm -- 29.98 in1015.2 mb 0.00 in0.0 mm 0.00 in0.0 mm 0.00 in0.0 mm
02:25 AM 14.5°F-9.7°C 12.4°F-10.9°C 91% Calm Calm -- 29.98 in1015.2 mb 0.00 in0.0 mm 0.00 in0.0 mm 0.00 in0.0 mm
02:30 AM 14.7°F-9.6°C 12.6°F-10.8°C 91% Calm Calm -- 29.98 in1015.2 mb 0.00 in0.0 mm 0.00 in0.0 mm 0.00 in0.0 mm
02:35 AM 14.9°F-9.5°C 12.7°F-10.7°C 91% Calm Calm -- 29.98 in1015.2 mb 0.00 in0.0 mm 0.00 in0.0 mm 0.00 in0.0 mm
02:40 AM 15.0°F-9.4°C 12.9°F-10.6°C 91% Calm Calm -- 29.98 in1015.2 mb 0.00 in0.0 mm 0.00 in0.0 mm 0.00 in0.0 mm
02:45 AM 15.2°F-9.3°C 13.1°F-10.5°C 91% Calm Calm -- 29.98 in1015.2 mb 0.00 in0.0 mm 0.00 in0.0 mm 0.00 in0.0 mm
02:50 AM 15.4°F-9.2°C 13.3°F-10.4°C 91% Calm Calm -- 29.98 in1015.2 mb 0.00 in0.0 mm 0.00 in0.0 mm 0.00 in0.0 mm
02:55 AM 15.6°F-9.1°C 13.5°F-10.3°C 91% Calm Calm -- 29.98 in1015.2 mb 0.00 in0.0 mm 0.00 in0.0 mm 0.00 in0.0 mm
03:00 AM 15.6°F-9.1°C 13.5°F-10.3°C 91% Calm Calm -- 29.97 in1014.9 mb 0.00 in0.0 mm 0.00 in0.0 mm 0.00 in0.0 mm
03:05 AM 15.7°F-9.1°C 13.5°F-10.3°C 91% Calm Calm -- 29.97 in1014.9 mb 0.00 in0.0 mm 0.00 in0.0 mm 0.00 in0.0 mm
03:10 AM 15.7°F-9.1°C 13.5°F-10.3°C 91% 2.0 mph W3.2 kmh W -- 29.97 in1014.9 mb 0.00 in0.0 mm 0.00 in0.0 mm 0.00 in0.0 mm
03:15 AM 15.8°F-9.0°C 13.6°F-10.2°C 91% 5.0 mph W8.0 kmh W 10.0 mph16.1 kmh 29.97 in1014.9 mb 0.00 in0.0 mm 0.00 in0.0 mm 0.00 in0.0 mm
03:20 AM 16.0°F-8.9°C 13.8°F-10.1°C 91% 2.0 mph W3.2 kmh W -- 29.97 in1014.9 mb 0.00 in0.0 mm 0.00 in0.0 mm 0.00 in0.0 mm
03:25 AM 16.0°F-8.9°C 13.8°F-10.1°C 91% Calm Calm -- 29.97 in1014.9 mb 0.00 in0.0 mm 0.00 in0.0 mm 0.00 in0.0 mm
03:30 AM 16.0°F-8.9°C 13.8°F-10.1°C 91% Calm Calm -- 29.97 in1014.9 mb 0.00 in0.0 mm 0.00 in0.0 mm 0.00 in0.0 mm
03:35 AM 16.0°F-8.9°C 13.8°F-10.1°C 91% Calm Calm -- 29.97 in1014.9 mb 0.00 in0.0 mm 0.00 in0.0 mm 0.00 in0.0 mm
03:40 AM 16.0°F-8.9°C 13.8°F-10.1°C 91% Calm Calm -- 29.97 in1014.9 mb 0.00 in0.0 mm 0.00 in0.0 mm 0.00 in0.0 mm
03:45 AM 16.0°F-8.9°C 13.8°F-10.1°C 91% Calm Calm -- 29.97 in1014.9 mb 0.00 in0.0 mm 0.00 in0.0 mm 0.00 in0.0 mm
03:50 AM 16.0°F-8.9°C 13.8°F-10.1°C 91% Calm Calm -- 29.97 in1014.9 mb 0.00 in0.0 mm 0.00 in0.0 mm 0.00 in0.0 mm
03:55 AM 16.0°F-8.9°C 13.8°F-10.1°C 91% 2.0 mph W3.2 kmh W -- 29.97 in1014.9 mb 0.00 in0.0 mm 0.00 in0.0 mm 0.00 in0.0 mm
04:00 AM 16.0°F-8.9°C 13.8°F-10.1°C 91% 6.0 mph W9.7 kmh W -- 29.97 in1014.9 mb 0.00 in0.0 mm 0.00 in0.0 mm 0.00 in0.0 mm
04:06 AM 16.1°F-8.8°C 14.0°F-10.0°C 91% 5.0 mph W8.0 kmh W 7.0 mph11.3 kmh 29.97 in1014.9 mb 0.00 in0.0 mm 0.00 in0.0 mm 0.00 in0.0 mm
04:10 AM 16.1°F-8.8°C 14.0°F-10.0°C 91% 6.0 mph W9.7 kmh W -- 29.97 in1014.9 mb 0.00 in0.0 mm 0.00 in0.0 mm 0.00 in0.0 mm
04:15 AM 16.1°F-8.8°C 14.0°F-10.0°C 91% 4.0 mph W6.4 kmh W -- 29.98 in1015.2 mb 0.00 in0.0 mm 0.00 in0.0 mm 0.00 in0.0 mm
04:20 AM 16.3°F-8.7°C 14.2°F-9.9°C 91% 4.0 mph W6.4 kmh W -- 29.97 in1014.9 mb 0.00 in0.0 mm 0.00 in0.0 mm 0.00 in0.0 mm
04:25 AM 16.4°F-8.7°C 14.2°F-9.9°C 91% 10.0 mph W16.1 kmh W -- 29.98 in1015.2 mb 0.00 in0.0 mm 0.00 in0.0 mm 0.00 in0.0 mm
04:30 AM 16.5°F-8.6°C 14.4°F-9.8°C 91% 5.0 mph W8.0 kmh W 10.0 mph16.1 kmh 29.98 in1015.2 mb 0.00 in0.0 mm 0.00 in0.0 mm 0.00 in0.0 mm
04:35 AM 16.5°F-8.6°C 14.4°F-9.8°C 91% 3.0 mph W4.8 kmh W -- 29.98 in1015.2 mb 0.00 in0.0 mm 0.00 in0.0 mm 0.00 in0.0 mm
04:40 AM 16.7°F-8.5°C 14.5°F-9.7°C 91% 1.0 mph W1.6 kmh W -- 29.97 in1014.9 mb 0.00 in0.0 mm 0.00 in0.0 mm 0.00 in0.0 mm
04:45 AM 16.7°F-8.5°C 14.5°F-9.7°C 91% 6.0 mph W9.7 kmh W -- 29.98 in1015.2 mb 0.00 in0.0 mm 0.00 in0.0 mm 0.00 in0.0 mm
04:50 AM 16.7°F-8.5°C 14.5°F-9.7°C 91% Calm Calm -- 29.97 in1014.9 mb 0.00 in0.0 mm 0.00 in0.0 mm 0.00 in0.0 mm
04:55 AM 16.7°F-8.5°C 14.5°F-9.7°C 91% 3.0 mph W4.8 kmh W 9.0 mph14.5 kmh 29.97 in1014.9 mb 0.00 in0.0 mm 0.00 in0.0 mm 0.00 in0.0 mm
05:00 AM 16.7°F-8.5°C 14.5°F-9.7°C 91% Calm Calm -- 29.97 in1014.9 mb 0.00 in0.0 mm 0.00 in0.0 mm 0.00 in0.0 mm
05:05 AM 16.7°F-8.5°C 14.5°F-9.7°C 91% Calm Calm -- 29.97 in1014.9 mb 0.00 in0.0 mm 0.00 in0.0 mm 0.00 in0.0 mm
05:10 AM 16.7°F-8.5°C 14.5°F-9.7°C 91% Calm Calm -- 29.97 in1014.9 mb 0.00 in0.0 mm 0.00 in0.0 mm 0.00 in0.0 mm
05:15 AM 16.7°F-8.5°C 14.5°F-9.7°C 91% 4.0 mph W6.4 kmh W -- 29.97 in1014.9 mb 0.00 in0.0 mm 0.00 in0.0 mm 0.00 in0.0 mm
05:20 AM 16.7°F-8.5°C 14.7°F-9.6°C 92% 4.0 mph W6.4 kmh W 7.0 mph11.3 kmh 29.97 in1014.9 mb 0.00 in0.0 mm 0.00 in0.0 mm 0.00 in0.0 mm
05:25 AM 16.7°F-8.5°C 14.5°F-9.7°C 91% 4.0 mph W6.4 kmh W -- 29.97 in1014.9 mb 0.00 in0.0 mm 0.00 in0.0 mm 0.00 in0.0 mm
05:30 AM 16.8°F-8.4°C 14.7°F-9.6°C 91% 6.0 mph W9.7 kmh W -- 29.97 in1014.9 mb 0.00 in0.0 mm 0.00 in0.0 mm 0.00 in0.0 mm
05:35 AM 17.0°F-8.3°C 14.9°F-9.5°C 91% 5.0 mph W8.0 kmh W -- 29.96 in1014.6 mb 0.00 in0.0 mm 0.00 in0.0 mm 0.00 in0.0 mm
05:40 AM 17.1°F-8.3°C 15.1°F-9.4°C 92% Calm Calm -- 29.97 in1014.9 mb 0.00 in0.0 mm 0.00 in0.0 mm 0.00 in0.0 mm
05:45 AM 17.1°F-8.3°C 15.1°F-9.4°C 92% 9.0 mph W14.5 kmh W 9.0 mph14.5 kmh 29.97 in1014.9 mb 0.00 in0.0 mm 0.00 in0.0 mm 0.00 in0.0 mm
05:50 AM 17.2°F-8.2°C 15.3°F-9.3°C 92% 10.0 mph W16.1 kmh W -- 29.97 in1014.9 mb 0.00 in0.0 mm 0.00 in0.0 mm 0.00 in0.0 mm
05:55 AM 17.4°F-8.1°C 15.4°F-9.2°C 92% Calm Calm -- 29.97 in1014.9 mb 0.00 in0.0 mm 0.00 in0.0 mm 0.00 in0.0 mm
06:00 AM 17.4°F-8.1°C 15.4°F-9.2°C 92% 2.0 mph W3.2 kmh W -- 29.97 in1014.9 mb 0.00 in0.0 mm 0.00 in0.0 mm 0.00 in0.0 mm
06:05 AM 17.4°F-8.1°C 15.4°F-9.2°C 92% 5.0 mph W8.0 kmh W -- 29.97 in1014.9 mb 0.00 in0.0 mm 0.00 in0.0 mm 0.00 in0.0 mm
06:10 AM 17.4°F-8.1°C 15.4°F-9.2°C 92% 2.0 mph W3.2 kmh W 10.0 mph16.1 kmh 29.97 in1014.9 mb 0.00 in0.0 mm 0.00 in0.0 mm 0.00 in0.0 mm
06:15 AM 17.4°F-8.1°C 15.4°F-9.2°C 92% 4.0 mph W6.4 kmh W -- 29.96 in1014.6 mb 0.00 in0.0 mm 0.00 in0.0 mm 0.00 in0.0 mm
06:20 AM 17.5°F-8.1°C 15.4°F-9.2°C 92% 4.0 mph W6.4 kmh W -- 29.96 in1014.6 mb 0.00 in0.0 mm 0.00 in0.0 mm 0.00 in0.0 mm
06:25 AM 17.5°F-8.1°C 15.4°F-9.2°C 92% 5.0 mph W8.0 kmh W -- 29.96 in1014.6 mb 0.00 in0.0 mm 0.00 in0.0 mm 0.00 in0.0 mm
06:30 AM 17.5°F-8.1°C 15.4°F-9.2°C 92% 5.0 mph W8.0 kmh W -- 29.96 in1014.6 mb 0.00 in0.0 mm 0.00 in0.0 mm 0.00 in0.0 mm
06:35 AM 17.4°F-8.1°C 15.4°F-9.2°C 92% 3.0 mph W4.8 kmh W 10.0 mph16.1 kmh 29.96 in1014.6 mb 0.00 in0.0 mm 0.00 in0.0 mm 0.00 in0.0 mm
06:40 AM 17.4°F-8.1°C 15.4°F-9.2°C 92% 3.0 mph W4.8 kmh W -- 29.96 in1014.6 mb 0.00 in0.0 mm 0.00 in0.0 mm 0.00 in0.0 mm
06:45 AM 17.4°F-8.1°C 15.4°F-9.2°C 92% 5.0 mph W8.0 kmh W -- 29.96 in1014.6 mb 0.00 in0.0 mm 0.00 in0.0 mm 0.00 in0.0 mm
06:50 AM 17.4°F-8.1°C 15.4°F-9.2°C 92% 9.0 mph W14.5 kmh W -- 29.97 in1014.9 mb 0.00 in0.0 mm 0.00 in0.0 mm 0.00 in0.0 mm
06:55 AM 17.5°F-8.1°C 15.4°F-9.2°C 92% 6.0 mph W9.7 kmh W -- 29.97 in1014.9 mb 0.00 in0.0 mm 0.00 in0.0 mm 0.00 in0.0 mm
07:00 AM 17.7°F-7.9°C 15.8°F-9.0°C 92% 2.0 mph W3.2 kmh W 15.0 mph24.1 kmh 29.97 in1014.9 mb 0.00 in0.0 mm 0.00 in0.0 mm 0.00 in0.0 mm
07:05 AM 17.7°F-7.9°C 15.8°F-9.0°C 92% 4.0 mph W6.4 kmh W -- 29.97 in1014.9 mb 0.00 in0.0 mm 0.00 in0.0 mm 0.00 in0.0 mm
07:10 AM 17.9°F-7.8°C 16.0°F-8.9°C 92% 7.0 mph W11.3 kmh W -- 29.97 in1014.9 mb 0.00 in0.0 mm 0.00 in0.0 mm 0.00 in0.0 mm
07:15 AM 17.9°F-7.8°C 16.0°F-8.9°C 92% 6.0 mph W9.7 kmh W -- 29.97 in1014.9 mb 0.00 in0.0 mm 0.00 in0.0 mm 0.00 in0.0 mm
07:20 AM 18.0°F-7.8°C 16.0°F-8.9°C 92% 5.0 mph W8.0 kmh W -- 29.98 in1015.2 mb 0.00 in0.0 mm 0.00 in0.0 mm 0.00 in0.0 mm
07:25 AM 18.0°F-7.8°C 15.8°F-9.0°C 91% 12.0 mph W19.3 kmh W 15.0 mph24.1 kmh 29.98 in1015.2 mb 0.00 in0.0 mm 0.00 in0.0 mm 0.00 in0.0 mm
07:30 AM 18.0°F-7.8°C 15.8°F-9.0°C 91% 3.0 mph W4.8 kmh W -- 29.98 in1015.2 mb 0.00 in0.0 mm 0.00 in0.0 mm 0.00 in0.0 mm
07:35 AM 18.0°F-7.8°C 15.8°F-9.0°C 91% 5.0 mph W8.0 kmh W -- 29.98 in1015.2 mb 0.00 in0.0 mm 0.00 in0.0 mm 0.00 in0.0 mm
07:40 AM 17.9°F-7.8°C 16.0°F-8.9°C 92% 4.0 mph W6.4 kmh W -- 29.99 in1015.6 mb 0.00 in0.0 mm 0.00 in0.0 mm 0.00 in0.0 mm
07:45 AM 17.9°F-7.8°C 15.8°F-9.0°C 91% 3.0 mph W4.8 kmh W -- 29.99 in1015.6 mb 0.00 in0.0 mm 0.00 in0.0 mm 0.00 in0.0 mm
07:50 AM 17.8°F-7.9°C 15.6°F-9.1°C 91% 6.0 mph W9.7 kmh W 11.0 mph17.7 kmh 29.99 in1015.6 mb 0.00 in0.0 mm 0.00 in0.0 mm 0.00 in0.0 mm
07:55 AM 17.8°F-7.9°C 15.6°F-9.1°C 91% 5.0 mph W8.0 kmh W -- 29.99 in1015.6 mb 0.00 in0.0 mm 0.00 in0.0 mm 0.00 in0.0 mm
08:00 AM 17.7°F-7.9°C 15.6°F-9.1°C 91% 9.0 mph W14.5 kmh W -- 30.00 in1015.9 mb 0.00 in0.0 mm 0.00 in0.0 mm 0.00 in0.0 mm
08:05 AM 17.7°F-7.9°C 15.6°F-9.1°C 91% 2.0 mph W3.2 kmh W -- 29.99 in1015.6 mb 0.00 in0.0 mm 0.00 in0.0 mm 0.00 in0.0 mm
08:10 AM 17.7°F-7.9°C 15.6°F-9.1°C 91% 1.0 mph W1.6 kmh W -- 29.99 in1015.6 mb 0.00 in0.0 mm 0.00 in0.0 mm 0.00 in0.0 mm
08:15 AM 17.6°F-8.0°C 15.4°F-9.2°C 91% 9.0 mph W14.5 kmh W 11.0 mph17.7 kmh 30.00 in1015.9 mb 0.00 in0.0 mm 0.00 in0.0 mm 0.00 in0.0 mm
08:20 AM 17.6°F-8.0°C 15.4°F-9.2°C 91% 11.0 mph W17.7 kmh W -- 30.00 in1015.9 mb 0.00 in0.0 mm 0.00 in0.0 mm 0.00 in0.0 mm
08:25 AM 17.7°F-7.9°C 15.6°F-9.1°C 91% 6.0 mph W9.7 kmh W -- 30.01 in1016.3 mb 0.00 in0.0 mm 0.00 in0.0 mm 0.00 in0.0 mm
08:30 AM 17.7°F-7.9°C 15.6°F-9.1°C 91% 6.0 mph W9.7 kmh W -- 30.01 in1016.3 mb 0.00 in0.0 mm 0.00 in0.0 mm 0.00 in0.0 mm
08:35 AM 17.8°F-7.9°C 15.6°F-9.1°C 91% 6.0 mph W9.7 kmh W -- 30.01 in1016.3 mb 0.00 in0.0 mm 0.00 in0.0 mm 0.00 in0.0 mm
08:40 AM 17.9°F-7.8°C 15.8°F-9.0°C 91% 3.0 mph W4.8 kmh W 13.0 mph20.9 kmh 30.02 in1016.6 mb 0.00 in0.0 mm 0.00 in0.0 mm 0.00 in0.0 mm
08:45 AM 18.1°F-7.7°C 16.2°F-8.8°C 92% 6.0 mph W9.7 kmh W -- 30.02 in1016.6 mb 0.00 in0.0 mm 0.00 in0.0 mm 0.00 in0.0 mm
08:50 AM 18.4°F-7.6°C 16.3°F-8.7°C 92% 3.0 mph W4.8 kmh W -- 30.02 in1016.6 mb 0.00 in0.0 mm 0.00 in0.0 mm 0.00 in0.0 mm
08:55 AM 18.7°F-7.4°C 16.7°F-8.5°C 92% 4.0 mph W6.4 kmh W -- 30.02 in1016.6 mb 0.00 in0.0 mm 0.00 in0.0 mm 0.00 in0.0 mm
09:00 AM 19.0°F-7.2°C 16.9°F-8.4°C 91% 5.0 mph W8.0 kmh W -- 30.03 in1016.9 mb 0.00 in0.0 mm 0.00 in0.0 mm 0.00 in0.0 mm
09:05 AM 19.2°F-7.1°C 17.2°F-8.2°C 92% 7.0 mph W11.3 kmh W 12.0 mph19.3 kmh 30.03 in1016.9 mb 0.00 in0.0 mm 0.00 in0.0 mm 0.00 in0.0 mm
09:10 AM 19.3°F-7.1°C 17.1°F-8.3°C 91% 9.0 mph W14.5 kmh W -- 30.03 in1016.9 mb 0.00 in0.0 mm 0.00 in0.0 mm 0.00 in0.0 mm
09:15 AM 19.5°F-6.9°C 17.4°F-8.1°C 91% 5.0 mph W8.0 kmh W -- 30.03 in1016.9 mb 0.00 in0.0 mm 0.00 in0.0 mm 0.00 in0.0 mm
09:20 AM 19.7°F-6.8°C 17.6°F-8.0°C 91% 14.0 mph W22.5 kmh W -- 30.04 in1017.3 mb 0.00 in0.0 mm 0.00 in0.0 mm 0.00 in0.0 mm
09:25 AM 19.9°F-6.7°C 17.8°F-7.9°C 91% 5.0 mph W8.0 kmh W -- 30.04 in1017.3 mb 0.00 in0.0 mm 0.00 in0.0 mm 0.00 in0.0 mm
09:30 AM 20.1°F-6.6°C 18.0°F-7.8°C 91% 3.0 mph W4.8 kmh W 15.0 mph24.1 kmh 30.04 in1017.3 mb 0.00 in0.0 mm 0.00 in0.0 mm 0.00 in0.0 mm
09:35 AM 20.4°F-6.4°C 18.3°F-7.6°C 91% 6.0 mph W9.7 kmh W -- 30.04 in1017.3 mb 0.00 in0.0 mm 0.00 in0.0 mm 0.00 in0.0 mm
09:40 AM 20.8°F-6.2°C 18.7°F-7.4°C 91% 6.0 mph W9.7 kmh W -- 30.05 in1017.6 mb 0.00 in0.0 mm 0.00 in0.0 mm 0.00 in0.0 mm
09:45 AM 21.1°F-6.1°C 18.9°F-7.3°C 91% 6.0 mph W9.7 kmh W -- 30.05 in1017.6 mb 0.00 in0.0 mm 0.00 in0.0 mm 0.00 in0.0 mm
09:50 AM 21.2°F-6.0°C 18.7°F-7.4°C 90% 10.0 mph W16.1 kmh W -- 30.05 in1017.6 mb 0.00 in0.0 mm 0.00 in0.0 mm 0.00 in0.0 mm
09:55 AM 21.4°F-5.9°C 18.9°F-7.3°C 90% 12.0 mph W19.3 kmh W 14.0 mph22.5 kmh 30.06 in1017.9 mb 0.00 in0.0 mm 0.00 in0.0 mm 0.00 in0.0 mm
10:00 AM 21.5°F-5.8°C 19.0°F-7.2°C 90% 7.0 mph W11.3 kmh W -- 30.05 in1017.6 mb 0.00 in0.0 mm 0.00 in0.0 mm 0.00 in0.0 mm
10:05 AM 21.9°F-5.6°C 19.4°F-7.0°C 90% 13.0 mph W20.9 kmh W -- 30.06 in1017.9 mb 0.00 in0.0 mm 0.00 in0.0 mm 0.00 in0.0 mm
10:10 AM 22.2°F-5.4°C 19.6°F-6.9°C 89% 14.0 mph W22.5 kmh W -- 30.06 in1017.9 mb 0.00 in0.0 mm 0.00 in0.0 mm 0.00 in0.0 mm
10:15 AM 22.3°F-5.4°C 19.6°F-6.9°C 89% 8.0 mph W12.9 kmh W -- 30.06 in1017.9 mb 0.00 in0.0 mm 0.00 in0.0 mm 0.00 in0.0 mm
10:20 AM 22.7°F-5.2°C 19.6°F-6.9°C 88% 19.0 mph W30.6 kmh W 17.0 mph27.4 kmh 30.07 in1018.3 mb 0.00 in0.0 mm 0.00 in0.0 mm 0.00 in0.0 mm
10:25 AM 23.0°F-5.0°C 19.9°F-6.7°C 88% 11.0 mph W17.7 kmh W -- 30.07 in1018.3 mb 0.00 in0.0 mm 0.00 in0.0 mm 0.00 in0.0 mm
10:30 AM 23.1°F-4.9°C 19.9°F-6.7°C 87% 19.0 mph W30.6 kmh W -- 30.07 in1018.3 mb 0.00 in0.0 mm 0.00 in0.0 mm 0.00 in0.0 mm
10:35 AM 23.1°F-4.9°C 19.9°F-6.7°C 87% 14.0 mph W22.5 kmh W -- 30.07 in1018.3 mb 0.00 in0.0 mm 0.00 in0.0 mm 0.00 in0.0 mm
10:40 AM 23.0°F-5.0°C 19.8°F-6.8°C 87% 13.0 mph W20.9 kmh W -- 30.08 in1018.6 mb 0.00 in0.0 mm 0.00 in0.0 mm 0.00 in0.0 mm
10:45 AM 23.0°F-5.0°C 19.8°F-6.8°C 87% 11.0 mph W17.7 kmh W 21.0 mph33.8 kmh 30.08 in1018.6 mb 0.00 in0.0 mm 0.00 in0.0 mm 0.00 in0.0 mm
10:50 AM 22.9°F-5.1°C 19.2°F-7.1°C 86% 10.0 mph W16.1 kmh W -- 30.08 in1018.6 mb 0.00 in0.0 mm 0.00 in0.0 mm 0.00 in0.0 mm
10:55 AM 22.8°F-5.1°C 19.2°F-7.1°C 86% 16.0 mph W25.7 kmh W -- 30.08 in1018.6 mb 0.00 in0.0 mm 0.00 in0.0 mm 0.00 in0.0 mm
11:00 AM 22.6°F-5.2°C 19.0°F-7.2°C 86% 13.0 mph W20.9 kmh W -- 30.09 in1019.0 mb 0.00 in0.0 mm 0.00 in0.0 mm 0.00 in0.0 mm
11:05 AM 22.6°F-5.2°C 19.0°F-7.2°C 86% 12.0 mph W19.3 kmh W -- 30.09 in1019.0 mb 0.00 in0.0 mm 0.00 in0.0 mm 0.00 in0.0 mm
11:10 AM 22.7°F-5.2°C 19.0°F-7.2°C 86% 12.0 mph W19.3 kmh W 24.0 mph38.6 kmh 30.09 in1019.0 mb 0.00 in0.0 mm 0.00 in0.0 mm 0.00 in0.0 mm
11:15 AM 22.8°F-5.1°C 19.2°F-7.1°C 86% 17.0 mph W27.4 kmh W -- 30.10 in1019.3 mb 0.00 in0.0 mm 0.00 in0.0 mm 0.00 in0.0 mm
11:20 AM 22.7°F-5.2°C 19.0°F-7.2°C 86% 10.0 mph W16.1 kmh W -- 30.10 in1019.3 mb 0.00 in0.0 mm 0.00 in0.0 mm 0.00 in0.0 mm
11:25 AM 22.6°F-5.2°C 19.0°F-7.2°C 86% 7.0 mph W11.3 kmh W -- 30.10 in1019.3 mb 0.00 in0.0 mm 0.00 in0.0 mm 0.00 in0.0 mm
11:30 AM 22.5°F-5.3°C 18.9°F-7.3°C 86% 11.0 mph W17.7 kmh W -- 30.11 in1019.6 mb 0.00 in0.0 mm 0.00 in0.0 mm 0.00 in0.0 mm
11:35 AM 22.4°F-5.3°C 18.7°F-7.4°C 85% 18.0 mph W29.0 kmh W 24.0 mph38.6 kmh 30.11 in1019.6 mb 0.00 in0.0 mm 0.00 in0.0 mm 0.00 in0.0 mm
11:40 AM 22.2°F-5.4°C 18.5°F-7.5°C 85% 14.0 mph W22.5 kmh W -- 30.12 in1020.0 mb 0.00 in0.0 mm 0.00 in0.0 mm 0.00 in0.0 mm
11:45 AM 21.8°F-5.7°C 18.0°F-7.8°C 85% 15.0 mph W24.1 kmh W -- 30.13 in1020.3 mb 0.00 in0.0 mm 0.00 in0.0 mm 0.00 in0.0 mm
11:50 AM 21.4°F-5.9°C 17.6°F-8.0°C 85% 10.0 mph W16.1 kmh W -- 30.13 in1020.3 mb 0.00 in0.0 mm 0.00 in0.0 mm 0.00 in0.0 mm
11:55 AM 21.1°F-6.1°C 17.2°F-8.2°C 85% 20.0 mph W32.2 kmh W -- 30.13 in1020.3 mb 0.00 in0.0 mm 0.00 in0.0 mm 0.00 in0.0 mm
12:00 PM 21.0°F-6.1°C 17.2°F-8.2°C 85% 16.0 mph W25.7 kmh W 27.0 mph43.5 kmh 30.13 in1020.3 mb 0.00 in0.0 mm 0.00 in0.0 mm 0.00 in0.0 mm
12:05 PM 20.9°F-6.2°C 17.1°F-8.3°C 85% 8.0 mph W12.9 kmh W -- 30.13 in1020.3 mb 0.00 in0.0 mm 0.00 in0.0 mm 0.00 in0.0 mm
12:10 PM 21.0°F-6.1°C 17.4°F-8.1°C 86% 11.0 mph W17.7 kmh W -- 30.13 in1020.3 mb 0.00 in0.0 mm 0.00 in0.0 mm 0.00 in0.0 mm
12:15 PM 21.3°F-5.9°C 17.8°F-7.9°C 86% 9.0 mph W14.5 kmh W -- 30.13 in1020.3 mb 0.00 in0.0 mm 0.00 in0.0 mm 0.00 in0.0 mm
12:20 PM 21.5°F-5.8°C 17.8°F-7.9°C 85% 11.0 mph W17.7 kmh W -- 30.13 in1020.3 mb 0.00 in0.0 mm 0.00 in0.0 mm 0.00 in0.0 mm
12:25 PM 21.6°F-5.8°C 17.8°F-7.9°C 85% 10.0 mph W16.1 kmh W 18.0 mph29.0 kmh 30.13 in1020.3 mb 0.00 in0.0 mm 0.00 in0.0 mm 0.00 in0.0 mm
12:30 PM 21.7°F-5.7°C 18.0°F-7.8°C 85% 7.0 mph W11.3 kmh W -- 30.13 in1020.3 mb 0.00 in0.0 mm 0.00 in0.0 mm 0.00 in0.0 mm
12:35 PM 22.0°F-5.6°C 18.1°F-7.7°C 85% 2.0 mph W3.2 kmh W -- 30.13 in1020.3 mb 0.00 in0.0 mm 0.00 in0.0 mm 0.00 in0.0 mm
12:40 PM 22.2°F-5.4°C 18.5°F-7.5°C 85% 9.0 mph W14.5 kmh W -- 30.13 in1020.3 mb 0.00 in0.0 mm 0.00 in0.0 mm 0.00 in0.0 mm
12:45 PM 22.3°F-5.4°C 18.5°F-7.5°C 85% 5.0 mph W8.0 kmh W -- 30.14 in1020.7 mb 0.00 in0.0 mm 0.00 in0.0 mm 0.00 in0.0 mm
12:50 PM 22.3°F-5.4°C 18.1°F-7.7°C 84% 8.0 mph W12.9 kmh W 18.0 mph29.0 kmh 30.14 in1020.7 mb 0.00 in0.0 mm 0.00 in0.0 mm 0.00 in0.0 mm
12:55 PM 22.2°F-5.4°C 18.1°F-7.7°C 84% 15.0 mph W24.1 kmh W -- 30.13 in1020.3 mb 0.00 in0.0 mm 0.00 in0.0 mm 0.00 in0.0 mm
01:00 PM 22.1°F-5.5°C 18.0°F-7.8°C 84% 6.0 mph W9.7 kmh W -- 30.13 in1020.3 mb 0.00 in0.0 mm 0.00 in0.0 mm 0.00 in0.0 mm
01:05 PM 22.1°F-5.5°C 18.0°F-7.8°C 84% 19.0 mph W30.6 kmh W -- 30.14 in1020.7 mb 0.00 in0.0 mm 0.00 in0.0 mm 0.00 in0.0 mm
01:10 PM 22.1°F-5.5°C 18.0°F-7.8°C 84% 18.0 mph W29.0 kmh W -- 30.14 in1020.7 mb 0.00 in0.0 mm 0.00 in0.0 mm 0.00 in0.0 mm
01:15 PM 22.1°F-5.5°C 18.0°F-7.8°C 84% 15.0 mph W24.1 kmh W 19.0 mph30.6 kmh 30.14 in1020.7 mb 0.00 in0.0 mm 0.00 in0.0 mm 0.00 in0.0 mm
01:20 PM 22.1°F-5.5°C 18.0°F-7.8°C 84% 10.0 mph W16.1 kmh W -- 30.14 in1020.7 mb 0.00 in0.0 mm 0.00 in0.0 mm 0.00 in0.0 mm
01:25 PM 22.3°F-5.4°C 18.1°F-7.7°C 84% 11.0 mph W17.7 kmh W -- 30.14 in1020.7 mb 0.00 in0.0 mm 0.00 in0.0 mm 0.00 in0.0 mm
01:30 PM 22.3°F-5.4°C 18.1°F-7.7°C 84% 8.0 mph W12.9 kmh W -- 30.14 in1020.7 mb 0.00 in0.0 mm 0.00 in0.0 mm 0.00 in0.0 mm
01:35 PM 22.3°F-5.4°C 18.0°F-7.8°C 83% 3.0 mph W4.8 kmh W -- 30.14 in1020.7 mb 0.00 in0.0 mm 0.00 in0.0 mm 0.00 in0.0 mm
01:40 PM 22.5°F-5.3°C 18.3°F-7.6°C 84% 9.0 mph W14.5 kmh W 17.0 mph27.4 kmh 30.14 in1020.7 mb 0.00 in0.0 mm 0.00 in0.0 mm 0.00 in0.0 mm
01:45 PM 22.6°F-5.2°C 18.3°F-7.6°C 83% 6.0 mph W9.7 kmh W -- 30.13 in1020.3 mb 0.00 in0.0 mm 0.00 in0.0 mm 0.00 in0.0 mm
01:50 PM 22.8°F-5.1°C 18.5°F-7.5°C 83% 11.0 mph W17.7 kmh W -- 30.14 in1020.7 mb 0.00 in0.0 mm 0.00 in0.0 mm 0.00 in0.0 mm
01:55 PM 22.9°F-5.1°C 18.5°F-7.5°C 83% 7.0 mph W11.3 kmh W -- 30.14 in1020.7 mb 0.00 in0.0 mm 0.00 in0.0 mm 0.00 in0.0 mm
02:00 PM 23.2°F-4.9°C 18.9°F-7.3°C 83% 12.0 mph W19.3 kmh W -- 30.13 in1020.3 mb 0.00 in0.0 mm 0.00 in0.0 mm 0.00 in0.0 mm
02:05 PM 23.2°F-4.9°C 18.5°F-7.5°C 82% 12.0 mph W19.3 kmh W 21.0 mph33.8 kmh 30.14 in1020.7 mb 0.00 in0.0 mm 0.00 in0.0 mm 0.00 in0.0 mm
02:10 PM 23.2°F-4.9°C 18.3°F-7.6°C 81% 20.0 mph W32.2 kmh W -- 30.14 in1020.7 mb 0.00 in0.0 mm 0.00 in0.0 mm 0.00 in0.0 mm
02:15 PM 23.3°F-4.8°C 18.1°F-7.7°C 80% 13.0 mph W20.9 kmh W -- 30.14 in1020.7 mb 0.00 in0.0 mm 0.00 in0.0 mm 0.00 in0.0 mm
02:20 PM 23.5°F-4.7°C 18.3°F-7.6°C 80% 10.0 mph W16.1 kmh W -- 30.14 in1020.7 mb 0.00 in0.0 mm 0.00 in0.0 mm 0.00 in0.0 mm
02:25 PM 23.5°F-4.7°C 18.3°F-7.6°C 80% 5.0 mph W8.0 kmh W -- 30.14 in1020.7 mb 0.00 in0.0 mm 0.00 in0.0 mm 0.00 in0.0 mm
02:30 PM 23.6°F-4.7°C 18.3°F-7.6°C 80% 6.0 mph W9.7 kmh W 20.0 mph32.2 kmh 30.14 in1020.7 mb 0.00 in0.0 mm 0.00 in0.0 mm 0.00 in0.0 mm
02:35 PM 23.7°F-4.6°C 18.5°F-7.5°C 80% 6.0 mph W9.7 kmh W -- 30.14 in1020.7 mb 0.00 in0.0 mm 0.00 in0.0 mm 0.00 in0.0 mm
02:40 PM 23.9°F-4.5°C 18.9°F-7.3°C 81% 7.0 mph W11.3 kmh W -- 30.14 in1020.7 mb 0.00 in0.0 mm 0.00 in0.0 mm 0.00 in0.0 mm
02:45 PM 24.3°F-4.3°C 18.7°F-7.4°C 79% 5.0 mph W8.0 kmh W -- 30.14 in1020.7 mb 0.00 in0.0 mm 0.00 in0.0 mm 0.00 in0.0 mm
02:50 PM 24.8°F-4.0°C 18.9°F-7.3°C 78% 6.0 mph W9.7 kmh W -- 30.14 in1020.7 mb 0.00 in0.0 mm 0.00 in0.0 mm 0.00 in0.0 mm
02:55 PM 24.8°F-4.0°C 18.3°F-7.6°C 76% 9.0 mph W14.5 kmh W 23.0 mph37.0 kmh 30.14 in1020.7 mb 0.00 in0.0 mm 0.00 in0.0 mm 0.00 in0.0 mm
03:00 PM 24.7°F-4.1°C 18.5°F-7.5°C 77% 12.0 mph W19.3 kmh W -- 30.14 in1020.7 mb 0.00 in0.0 mm 0.00 in0.0 mm 0.00 in0.0 mm
03:05 PM 24.7°F-4.1°C 18.5°F-7.5°C 77% 13.0 mph W20.9 kmh W -- 30.14 in1020.7 mb 0.00 in0.0 mm 0.00 in0.0 mm 0.00 in0.0 mm
03:10 PM 24.6°F-4.1°C 18.5°F-7.5°C 77% 12.0 mph W19.3 kmh W -- 30.14 in1020.7 mb 0.00 in0.0 mm 0.00 in0.0 mm 0.00 in0.0 mm
03:15 PM 24.8°F-4.0°C 18.3°F-7.6°C 76% 22.0 mph W35.4 kmh W -- 30.15 in1021.0 mb 0.00 in0.0 mm 0.00 in0.0 mm 0.00 in0.0 mm
03:20 PM 24.8°F-4.0°C 18.0°F-7.8°C 75% 15.0 mph W24.1 kmh W 23.0 mph37.0 kmh 30.15 in1021.0 mb 0.00 in0.0 mm 0.00 in0.0 mm 0.00 in0.0 mm
03:25 PM 24.8°F-4.0°C 18.0°F-7.8°C 75% 16.0 mph W25.7 kmh W -- 30.15 in1021.0 mb 0.00 in0.0 mm 0.00 in0.0 mm 0.00 in0.0 mm
03:30 PM 24.8°F-4.0°C 18.0°F-7.8°C 75% 11.0 mph W17.7 kmh W -- 30.16 in1021.3 mb 0.00 in0.0 mm 0.00 in0.0 mm 0.00 in0.0 mm
03:35 PM 24.9°F-3.9°C 18.1°F-7.7°C 75% 15.0 mph W24.1 kmh W -- 30.16 in1021.3 mb 0.00 in0.0 mm 0.00 in0.0 mm 0.00 in0.0 mm
03:40 PM 25.1°F-3.8°C 18.1°F-7.7°C 74% 9.0 mph W14.5 kmh W -- 30.16 in1021.3 mb 0.00 in0.0 mm 0.00 in0.0 mm 0.00 in0.0 mm
03:45 PM 25.3°F-3.7°C 17.6°F-8.0°C 72% 7.0 mph W11.3 kmh W 23.0 mph37.0 kmh 30.16 in1021.3 mb 0.00 in0.0 mm 0.00 in0.0 mm 0.00 in0.0 mm
03:50 PM 25.3°F-3.7°C 17.2°F-8.2°C 71% 11.0 mph W17.7 kmh W -- 30.16 in1021.3 mb 0.00 in0.0 mm 0.00 in0.0 mm 0.00 in0.0 mm
03:55 PM 25.2°F-3.8°C 17.1°F-8.3°C 71% 6.0 mph W9.7 kmh W -- 30.16 in1021.3 mb 0.00 in0.0 mm 0.00 in0.0 mm 0.00 in0.0 mm
04:00 PM 25.1°F-3.8°C 17.1°F-8.3°C 71% 9.0 mph W14.5 kmh W -- 30.16 in1021.3 mb 0.00 in0.0 mm 0.00 in0.0 mm 0.00 in0.0 mm
04:05 PM 25.1°F-3.8°C 17.1°F-8.3°C 71% 9.0 mph W14.5 kmh W -- 30.16 in1021.3 mb 0.00 in0.0 mm 0.00 in0.0 mm 0.00 in0.0 mm
04:10 PM 25.0°F-3.9°C 16.9°F-8.4°C 71% 22.0 mph W35.4 kmh W 17.0 mph27.4 kmh 30.16 in1021.3 mb 0.00 in0.0 mm 0.00 in0.0 mm 0.00 in0.0 mm
04:15 PM 24.8°F-4.0°C 16.7°F-8.5°C 71% 9.0 mph W14.5 kmh W -- 30.16 in1021.3 mb 0.00 in0.0 mm 0.00 in0.0 mm 0.00 in0.0 mm
04:20 PM 24.7°F-4.1°C 16.9°F-8.4°C 72% 7.0 mph W11.3 kmh W -- 30.16 in1021.3 mb 0.00 in0.0 mm 0.00 in0.0 mm 0.00 in0.0 mm
04:25 PM 24.7°F-4.1°C 16.9°F-8.4°C 72% 10.0 mph W16.1 kmh W -- 30.16 in1021.3 mb 0.00 in0.0 mm 0.00 in0.0 mm 0.00 in0.0 mm
04:30 PM 24.6°F-4.1°C 16.9°F-8.4°C 72% 6.0 mph W9.7 kmh W -- 30.17 in1021.7 mb 0.00 in0.0 mm 0.00 in0.0 mm 0.00 in0.0 mm
04:35 PM 24.6°F-4.1°C 17.2°F-8.2°C 73% 10.0 mph W16.1 kmh W 20.0 mph32.2 kmh 30.17 in1021.7 mb 0.00 in0.0 mm 0.00 in0.0 mm 0.00 in0.0 mm
04:40 PM 24.6°F-4.1°C 16.9°F-8.4°C 72% 13.0 mph W20.9 kmh W -- 30.17 in1021.7 mb 0.00 in0.0 mm 0.00 in0.0 mm 0.00 in0.0 mm
04:45 PM 24.6°F-4.1°C 16.9°F-8.4°C 72% 11.0 mph W17.7 kmh W -- 30.17 in1021.7 mb 0.00 in0.0 mm 0.00 in0.0 mm 0.00 in0.0 mm
04:50 PM 24.5°F-4.2°C 16.2°F-8.8°C 70% 5.0 mph W8.0 kmh W -- 30.17 in1021.7 mb 0.00 in0.0 mm 0.00 in0.0 mm 0.00 in0.0 mm
04:55 PM 24.6°F-4.1°C 16.5°F-8.6°C 71% 11.0 mph W17.7 kmh W -- 30.18 in1022.0 mb 0.00 in0.0 mm 0.00 in0.0 mm 0.00 in0.0 mm
05:00 PM 24.7°F-4.1°C 16.3°F-8.7°C 70% 7.0 mph W11.3 kmh W 18.0 mph29.0 kmh 30.18 in1022.0 mb 0.00 in0.0 mm 0.00 in0.0 mm 0.00 in0.0 mm
05:05 PM 24.6°F-4.1°C 16.0°F-8.9°C 69% 6.0 mph W9.7 kmh W -- 30.18 in1022.0 mb 0.00 in0.0 mm 0.00 in0.0 mm 0.00 in0.0 mm
05:10 PM 24.6°F-4.1°C 16.0°F-8.9°C 69% 12.0 mph W19.3 kmh W -- 30.18 in1022.0 mb 0.00 in0.0 mm 0.00 in0.0 mm 0.00 in0.0 mm
05:15 PM 24.8°F-4.0°C 15.8°F-9.0°C 68% 12.0 mph W19.3 kmh W -- 30.18 in1022.0 mb 0.00 in0.0 mm 0.00 in0.0 mm 0.00 in0.0 mm
05:20 PM 24.8°F-4.0°C 16.2°F-8.8°C 69% 10.0 mph W16.1 kmh W -- 30.18 in1022.0 mb 0.00 in0.0 mm 0.00 in0.0 mm 0.00 in0.0 mm
05:25 PM 24.8°F-4.0°C 16.2°F-8.8°C 69% 11.0 mph W17.7 kmh W 18.0 mph29.0 kmh 30.19 in1022.4 mb 0.00 in0.0 mm 0.00 in0.0 mm 0.00 in0.0 mm
05:30 PM 24.6°F-4.1°C 15.6°F-9.1°C 68% 19.0 mph W30.6 kmh W -- 30.19 in1022.4 mb 0.00 in0.0 mm 0.00 in0.0 mm 0.00 in0.0 mm
05:35 PM 24.4°F-4.2°C 15.8°F-9.0°C 69% 12.0 mph W19.3 kmh W -- 30.20 in1022.7 mb 0.00 in0.0 mm 0.00 in0.0 mm 0.00 in0.0 mm
05:40 PM 24.4°F-4.2°C 15.8°F-9.0°C 69% 5.0 mph W8.0 kmh W -- 30.20 in1022.7 mb 0.00 in0.0 mm 0.00 in0.0 mm 0.00 in0.0 mm
05:45 PM 24.3°F-4.3°C 15.6°F-9.1°C 69% 4.0 mph W6.4 kmh W -- 30.20 in1022.7 mb 0.00 in0.0 mm 0.00 in0.0 mm 0.00 in0.0 mm
05:50 PM 24.3°F-4.3°C 15.6°F-9.1°C 69% 6.0 mph W9.7 kmh W 16.0 mph25.7 kmh 30.20 in1022.7 mb 0.00 in0.0 mm 0.00 in0.0 mm 0.00 in0.0 mm
05:55 PM 24.2°F-4.3°C 16.0°F-8.9°C 70% 5.0 mph W8.0 kmh W -- 30.20 in1022.7 mb 0.00 in0.0 mm 0.00 in0.0 mm 0.00 in0.0 mm
06:00 PM 24.1°F-4.4°C 15.4°F-9.2°C 69% 4.0 mph W6.4 kmh W -- 30.20 in1022.7 mb 0.00 in0.0 mm 0.00 in0.0 mm 0.00 in0.0 mm
06:05 PM 24.1°F-4.4°C 15.4°F-9.2°C 69% 9.0 mph W14.5 kmh W -- 30.20 in1022.7 mb 0.00 in0.0 mm 0.00 in0.0 mm 0.00 in0.0 mm
06:10 PM 23.9°F-4.5°C 15.3°F-9.3°C 69% 7.0 mph W11.3 kmh W -- 30.20 in1022.7 mb 0.00 in0.0 mm 0.00 in0.0 mm 0.00 in0.0 mm
06:15 PM 23.8°F-4.6°C 14.7°F-9.6°C 68% 11.0 mph W17.7 kmh W 17.0 mph27.4 kmh 30.21 in1023.0 mb 0.00 in0.0 mm 0.00 in0.0 mm 0.00 in0.0 mm
06:20 PM 23.6°F-4.7°C 14.5°F-9.7°C 68% 9.0 mph W14.5 kmh W -- 30.21 in1023.0 mb 0.00 in0.0 mm 0.00 in0.0 mm 0.00 in0.0 mm
06:25 PM 23.5°F-4.7°C 14.5°F-9.7°C 68% 5.0 mph W8.0 kmh W -- 30.21 in1023.0 mb 0.00 in0.0 mm 0.00 in0.0 mm 0.00 in0.0 mm
06:30 PM 23.2°F-4.9°C 14.2°F-9.9°C 68% 11.0 mph W17.7 kmh W -- 30.21 in1023.0 mb 0.00 in0.0 mm 0.00 in0.0 mm 0.00 in0.0 mm
06:35 PM 23.1°F-4.9°C 13.8°F-10.1°C 67% 9.0 mph W14.5 kmh W -- 30.22 in1023.4 mb 0.00 in0.0 mm 0.00 in0.0 mm 0.00 in0.0 mm
06:40 PM 22.9°F-5.1°C 13.5°F-10.3°C 67% 11.0 mph W17.7 kmh W 17.0 mph27.4 kmh 30.22 in1023.4 mb 0.00 in0.0 mm 0.00 in0.0 mm 0.00 in0.0 mm
06:45 PM 22.7°F-5.2°C 13.3°F-10.4°C 67% 14.0 mph W22.5 kmh W -- 30.22 in1023.4 mb 0.00 in0.0 mm 0.00 in0.0 mm 0.00 in0.0 mm
06:50 PM 22.5°F-5.3°C 13.1°F-10.5°C 67% 10.0 mph W16.1 kmh W -- 30.22 in1023.4 mb 0.00 in0.0 mm 0.00 in0.0 mm 0.00 in0.0 mm
06:55 PM 22.4°F-5.3°C 13.1°F-10.5°C 67% 7.0 mph W11.3 kmh W -- 30.22 in1023.4 mb 0.00 in0.0 mm 0.00 in0.0 mm 0.00 in0.0 mm
07:00 PM 22.2°F-5.4°C 13.3°F-10.4°C 68% 11.0 mph W17.7 kmh W -- 30.22 in1023.4 mb 0.00 in0.0 mm 0.00 in0.0 mm 0.00 in0.0 mm
07:05 PM 22.1°F-5.5°C 13.1°F-10.5°C 68% 6.0 mph W9.7 kmh W 13.0 mph20.9 kmh 30.23 in1023.7 mb 0.00 in0.0 mm 0.00 in0.0 mm 0.00 in0.0 mm
07:10 PM 21.9°F-5.6°C 12.9°F-10.6°C 68% 11.0 mph W17.7 kmh W -- 30.23 in1023.7 mb 0.00 in0.0 mm 0.00 in0.0 mm 0.00 in0.0 mm
07:15 PM 21.8°F-5.7°C 12.2°F-11.0°C 66% 18.0 mph W29.0 kmh W -- 30.23 in1023.7 mb 0.00 in0.0 mm 0.00 in0.0 mm 0.00 in0.0 mm
07:20 PM 21.7°F-5.7°C 11.8°F-11.2°C 65% 13.0 mph W20.9 kmh W -- 30.24 in1024.0 mb 0.00 in0.0 mm 0.00 in0.0 mm 0.00 in0.0 mm
07:25 PM 21.5°F-5.8°C 11.3°F-11.5°C 64% 16.0 mph W25.7 kmh W -- 30.24 in1024.0 mb 0.00 in0.0 mm 0.00 in0.0 mm 0.00 in0.0 mm
07:30 PM 21.4°F-5.9°C 10.8°F-11.8°C 63% 11.0 mph W17.7 kmh W 22.0 mph35.4 kmh 30.25 in1024.4 mb 0.00 in0.0 mm 0.00 in0.0 mm 0.00 in0.0 mm
07:35 PM 21.2°F-6.0°C 10.6°F-11.9°C 63% 9.0 mph W14.5 kmh W -- 30.25 in1024.4 mb 0.00 in0.0 mm 0.00 in0.0 mm 0.00 in0.0 mm
07:40 PM 21.0°F-6.1°C 10.4°F-12.0°C 63% 14.0 mph W22.5 kmh W -- 30.25 in1024.4 mb 0.00 in0.0 mm 0.00 in0.0 mm 0.00 in0.0 mm
07:45 PM 20.8°F-6.2°C 10.6°F-11.9°C 64% 14.0 mph W22.5 kmh W -- 30.25 in1024.4 mb 0.00 in0.0 mm 0.00 in0.0 mm 0.00 in0.0 mm
07:50 PM 20.6°F-6.3°C 10.8°F-11.8°C 65% 10.0 mph W16.1 kmh W -- 30.25 in1024.4 mb 0.00 in0.0 mm 0.00 in0.0 mm 0.00 in0.0 mm
07:55 PM 20.4°F-6.4°C 11.3°F-11.5°C 67% 10.0 mph W16.1 kmh W 21.0 mph33.8 kmh 30.26 in1024.7 mb 0.00 in0.0 mm 0.00 in0.0 mm 0.00 in0.0 mm
08:00 PM 20.2°F-6.6°C 10.9°F-11.7°C 67% 11.0 mph W17.7 kmh W -- 30.26 in1024.7 mb 0.00 in0.0 mm 0.00 in0.0 mm 0.00 in0.0 mm
08:05 PM 20.0°F-6.7°C 11.1°F-11.6°C 68% 11.0 mph W17.7 kmh W -- 30.26 in1024.7 mb 0.00 in0.0 mm 0.00 in0.0 mm 0.00 in0.0 mm
08:10 PM 19.8°F-6.8°C 11.3°F-11.5°C 69% 11.0 mph W17.7 kmh W -- 30.26 in1024.7 mb 0.00 in0.0 mm 0.00 in0.0 mm 0.00 in0.0 mm
08:15 PM 19.7°F-6.8°C 11.3°F-11.5°C 69% 5.0 mph W8.0 kmh W -- 30.27 in1025.1 mb 0.00 in0.0 mm 0.00 in0.0 mm 0.00 in0.0 mm
08:20 PM 19.5°F-6.9°C 11.1°F-11.6°C 69% 11.0 mph W17.7 kmh W 19.0 mph30.6 kmh 30.27 in1025.1 mb 0.00 in0.0 mm 0.00 in0.0 mm 0.00 in0.0 mm
08:25 PM 19.3°F-7.1°C 10.8°F-11.8°C 69% 7.0 mph W11.3 kmh W -- 30.27 in1025.1 mb 0.00 in0.0 mm 0.00 in0.0 mm 0.00 in0.0 mm
08:30 PM 19.1°F-7.2°C 10.2°F-12.1°C 68% 11.0 mph W17.7 kmh W -- 30.27 in1025.1 mb 0.00 in0.0 mm 0.00 in0.0 mm 0.00 in0.0 mm
08:35 PM 18.8°F-7.3°C 9.7°F-12.4°C 67% 5.0 mph W8.0 kmh W -- 30.28 in1025.4 mb 0.00 in0.0 mm 0.00 in0.0 mm 0.00 in0.0 mm
08:40 PM 18.5°F-7.5°C 9.3°F-12.6°C 67% 12.0 mph W19.3 kmh W -- 30.28 in1025.4 mb 0.00 in0.0 mm 0.00 in0.0 mm 0.00 in0.0 mm
08:45 PM 18.1°F-7.7°C 9.1°F-12.7°C 67% 14.0 mph W22.5 kmh W 20.0 mph32.2 kmh 30.28 in1025.4 mb 0.00 in0.0 mm 0.00 in0.0 mm 0.00 in0.0 mm
08:50 PM 17.8°F-7.9°C 9.0°F-12.8°C 68% 12.0 mph W19.3 kmh W -- 30.29 in1025.7 mb 0.00 in0.0 mm 0.00 in0.0 mm 0.00 in0.0 mm
08:55 PM 17.5°F-8.1°C 8.8°F-12.9°C 68% 14.0 mph W22.5 kmh W -- 30.29 in1025.7 mb 0.00 in0.0 mm 0.00 in0.0 mm 0.00 in0.0 mm
09:00 PM 17.3°F-8.2°C 8.8°F-12.9°C 69% 13.0 mph W20.9 kmh W -- 30.29 in1025.7 mb 0.00 in0.0 mm 0.00 in0.0 mm 0.00 in0.0 mm
09:05 PM 17.0°F-8.3°C 8.6°F-13.0°C 69% 9.0 mph W14.5 kmh W -- 30.29 in1025.7 mb 0.00 in0.0 mm 0.00 in0.0 mm 0.00 in0.0 mm
09:10 PM 16.7°F-8.5°C 8.2°F-13.2°C 69% 15.0 mph W24.1 kmh W 21.0 mph33.8 kmh 30.29 in1025.7 mb 0.00 in0.0 mm 0.00 in0.0 mm 0.00 in0.0 mm
09:15 PM 16.4°F-8.7°C 8.1°F-13.3°C 69% 15.0 mph W24.1 kmh W -- 30.30 in1026.1 mb 0.00 in0.0 mm 0.00 in0.0 mm 0.00 in0.0 mm
09:20 PM 16.1°F-8.8°C 7.9°F-13.4°C 69% 11.0 mph W17.7 kmh W -- 30.30 in1026.1 mb 0.00 in0.0 mm 0.00 in0.0 mm 0.00 in0.0 mm
09:25 PM 15.9°F-8.9°C 7.7°F-13.5°C 69% 7.0 mph W11.3 kmh W -- 30.30 in1026.1 mb 0.00 in0.0 mm 0.00 in0.0 mm 0.00 in0.0 mm
09:30 PM 15.6°F-9.1°C 7.3°F-13.7°C 69% 11.0 mph W17.7 kmh W -- 30.30 in1026.1 mb 0.00 in0.0 mm 0.00 in0.0 mm 0.00 in0.0 mm
09:35 PM 15.3°F-9.3°C 7.0°F-13.9°C 69% 9.0 mph W14.5 kmh W 22.0 mph35.4 kmh 30.31 in1026.4 mb 0.00 in0.0 mm 0.00 in0.0 mm 0.00 in0.0 mm
09:40 PM 15.0°F-9.4°C 6.8°F-14.0°C 69% 6.0 mph W9.7 kmh W -- 30.31 in1026.4 mb 0.00 in0.0 mm 0.00 in0.0 mm 0.00 in0.0 mm
09:45 PM 14.6°F-9.7°C 5.5°F-14.7°C 67% 15.0 mph W24.1 kmh W -- 30.32 in1026.8 mb 0.00 in0.0 mm 0.00 in0.0 mm 0.00 in0.0 mm
09:50 PM 14.2°F-9.9°C 5.0°F-15.0°C 66% 14.0 mph W22.5 kmh W -- 30.32 in1026.8 mb 0.00 in0.0 mm 0.00 in0.0 mm 0.00 in0.0 mm
09:55 PM 13.9°F-10.1°C 4.6°F-15.2°C 66% 16.0 mph W25.7 kmh W -- 30.32 in1026.8 mb 0.00 in0.0 mm 0.00 in0.0 mm 0.00 in0.0 mm
10:00 PM 13.6°F-10.2°C 4.8°F-15.1°C 67% 12.0 mph W19.3 kmh W 22.0 mph35.4 kmh 30.32 in1026.8 mb 0.00 in0.0 mm 0.00 in0.0 mm 0.00 in0.0 mm
10:05 PM 13.4°F-10.3°C 4.6°F-15.2°C 67% 12.0 mph W19.3 kmh W -- 30.32 in1026.8 mb 0.00 in0.0 mm 0.00 in0.0 mm 0.00 in0.0 mm
10:10 PM 13.2°F-10.4°C 4.5°F-15.3°C 67% 11.0 mph W17.7 kmh W -- 30.32 in1026.8 mb 0.00 in0.0 mm 0.00 in0.0 mm 0.00 in0.0 mm
10:15 PM 13.0°F-10.6°C 4.1°F-15.5°C 67% 18.0 mph W29.0 kmh W -- 30.33 in1027.1 mb 0.00 in0.0 mm 0.00 in0.0 mm 0.00 in0.0 mm
10:20 PM 12.8°F-10.7°C 3.9°F-15.6°C 67% 7.0 mph W11.3 kmh W -- 30.33 in1027.1 mb 0.00 in0.0 mm 0.00 in0.0 mm 0.00 in0.0 mm
10:25 PM 12.7°F-10.7°C 3.9°F-15.6°C 67% 11.0 mph W17.7 kmh W 23.0 mph37.0 kmh 30.33 in1027.1 mb 0.00 in0.0 mm 0.00 in0.0 mm 0.00 in0.0 mm
10:30 PM 12.5°F-10.8°C 4.1°F-15.5°C 68% 6.0 mph W9.7 kmh W -- 30.34 in1027.4 mb 0.00 in0.0 mm 0.00 in0.0 mm 0.00 in0.0 mm
10:35 PM 12.4°F-10.9°C 3.9°F-15.6°C 68% 13.0 mph W20.9 kmh W -- 30.35 in1027.8 mb 0.00 in0.0 mm 0.00 in0.0 mm 0.00 in0.0 mm
10:40 PM 12.2°F-11.0°C 3.7°F-15.7°C 68% 7.0 mph W11.3 kmh W -- 30.35 in1027.8 mb 0.00 in0.0 mm 0.00 in0.0 mm 0.00 in0.0 mm
10:45 PM 12.1°F-11.1°C 3.9°F-15.6°C 69% 2.0 mph W3.2 kmh W -- 30.35 in1027.8 mb 0.00 in0.0 mm 0.00 in0.0 mm 0.00 in0.0 mm
10:50 PM 12.0°F-11.1°C 3.9°F-15.6°C 69% 12.0 mph W19.3 kmh W 20.0 mph32.2 kmh 30.35 in1027.8 mb 0.00 in0.0 mm 0.00 in0.0 mm 0.00 in0.0 mm
10:55 PM 11.9°F-11.2°C 3.7°F-15.7°C 69% 13.0 mph W20.9 kmh W -- 30.35 in1027.8 mb 0.00 in0.0 mm 0.00 in0.0 mm 0.00 in0.0 mm
11:00 PM 11.8°F-11.2°C 3.7°F-15.7°C 69% 9.0 mph W14.5 kmh W -- 30.36 in1028.1 mb 0.00 in0.0 mm 0.00 in0.0 mm 0.00 in0.0 mm
11:05 PM 11.7°F-11.3°C 3.7°F-15.7°C 70% 9.0 mph W14.5 kmh W -- 30.36 in1028.1 mb 0.00 in0.0 mm 0.00 in0.0 mm 0.00 in0.0 mm
11:10 PM 11.6°F-11.3°C 3.6°F-15.8°C 69% 7.0 mph W11.3 kmh W -- 30.36 in1028.1 mb 0.00 in0.0 mm 0.00 in0.0 mm 0.00 in0.0 mm
11:15 PM 11.4°F-11.4°C 3.4°F-15.9°C 69% 6.0 mph W9.7 kmh W 22.0 mph35.4 kmh 30.36 in1028.1 mb 0.00 in0.0 mm 0.00 in0.0 mm 0.00 in0.0 mm
11:20 PM 11.3°F-11.5°C 2.8°F-16.2°C 68% 11.0 mph W17.7 kmh W -- 30.36 in1028.1 mb 0.00 in0.0 mm 0.00 in0.0 mm 0.00 in0.0 mm
11:25 PM 11.3°F-11.5°C 2.8°F-16.2°C 68% 9.0 mph W14.5 kmh W -- 30.36 in1028.1 mb 0.00 in0.0 mm 0.00 in0.0 mm 0.00 in0.0 mm
11:30 PM 11.1°F-11.6°C 2.3°F-16.5°C 67% 10.0 mph W16.1 kmh W -- 30.36 in1028.1 mb 0.00 in0.0 mm 0.00 in0.0 mm 0.00 in0.0 mm
11:35 PM 11.1°F-11.6°C 2.3°F-16.5°C 67% 16.0 mph W25.7 kmh W -- 30.37 in1028.4 mb 0.00 in0.0 mm 0.00 in0.0 mm 0.00 in0.0 mm
11:40 PM 11.0°F-11.7°C 2.1°F-16.6°C 67% 13.0 mph W20.9 kmh W 22.0 mph35.4 kmh 30.36 in1028.1 mb 0.00 in0.0 mm 0.00 in0.0 mm 0.00 in0.0 mm
11:45 PM 10.9°F-11.7°C 2.1°F-16.6°C 67% 6.0 mph W9.7 kmh W -- 30.37 in1028.4 mb 0.00 in0.0 mm 0.00 in0.0 mm 0.00 in0.0 mm
11:50 PM 10.7°F-11.8°C 1.9°F-16.7°C 67% 14.0 mph W22.5 kmh W -- 30.37 in1028.4 mb 0.00 in0.0 mm 0.00 in0.0 mm 0.00 in0.0 mm
11:55 PM 10.7°F-11.8°C 1.9°F-16.7°C 67% 11.0 mph W17.7 kmh W -- 30.38 in1028.8 mb 0.00 in0.0 mm 0.00 in0.0 mm 0.00 in0.0 mm